Time;durP1;ratioP1;P1;durP2;ratioP2;P2;SDS_P1;SDS_P2;PMS_P1;PMS_P2;Temp;Humidity;BMP_temperature;BMP_pressure;BME280_temperature;BME280_humidity;BME280_pressure;Samples;Min_cycle;Max_cycle;Signal;HPM_P1;HPM_P2
2023/05/14 00:01:34;;;;;;;1.50;1.00;;;12.90;98.20;;;;;;5006850;28;20881;-79
2023/05/14 00:04:01;;;;;;;1.50;1.00;;;12.90;98.20;;;;;;5020169;28;20488;-80
2023/05/14 00:06:28;;;;;;;1.50;1.00;;;12.90;98.20;;;;;;5000535;28;20486;-80
2023/05/14 00:08:56;;;;;;;1.70;1.47;;;12.90;98.20;;;;;;5013275;28;20535;-81
2023/05/14 00:11:23;;;;;;;1.50;1.00;;;12.90;98.20;;;;;;5003954;28;20784;-80
2023/05/14 00:13:51;;;;;;;1.50;1.07;;;12.80;98.20;;;;;;5019728;28;20460;-81
2023/05/14 00:16:18;;;;;;;1.50;1.10;;;12.80;98.20;;;;;;4999925;28;20476;-78
2023/05/14 00:18:44;;;;;;;1.50;1.10;;;12.80;98.20;;;;;;5022956;28;20472;-79
2023/05/14 00:21:11;;;;;;;1.50;1.00;;;12.70;98.20;;;;;;5001499;28;20563;-81
2023/05/14 00:23:38;;;;;;;1.50;1.00;;;12.70;98.20;;;;;;5023472;28;20471;-80
2023/05/14 00:26:05;;;;;;;1.50;1.03;;;12.70;98.20;;;;;;5003326;28;20488;-80
2023/05/14 00:28:32;;;;;;;1.50;1.00;;;12.60;98.20;;;;;;5026446;28;20467;-80
2023/05/14 00:31:00;;;;;;;1.50;1.03;;;12.60;98.20;;;;;;5006551;28;20472;-80
2023/05/14 00:33:27;;;;;;;1.50;1.10;;;12.60;98.20;;;;;;5022451;28;20465;-79
2023/05/14 00:35:54;;;;;;;1.50;1.00;;;12.60;98.20;;;;;;5005488;28;20467;-79
2023/05/14 00:38:22;;;;;;;1.50;1.00;;;12.50;98.20;;;;;;5021265;28;21062;-79
2023/05/14 00:40:50;;;;;;;1.50;1.10;;;12.50;98.20;;;;;;4999863;28;20462;-79
2023/05/14 00:43:17;;;;;;;1.50;1.10;;;12.50;98.20;;;;;;5028314;28;20550;-81
2023/05/14 00:45:45;;;;;;;1.50;1.10;;;12.40;98.20;;;;;;5016376;28;20495;-81
2023/05/14 00:48:14;;;;;;;1.50;1.10;;;12.40;98.20;;;;;;5003917;28;20919;-79
2023/05/14 00:50:40;;;;;;;1.50;1.10;;;12.40;98.20;;;;;;5009780;28;20468;-79
2023/05/14 00:53:09;;;;;;;1.50;1.03;;;12.30;98.20;;;;;;5010672;28;20496;-81
2023/05/14 00:55:37;;;;;;;1.50;1.10;;;12.30;98.20;;;;;;5013304;28;20464;-79
2023/05/14 00:58:08;;;;;;;1.50;1.10;;;12.30;98.20;;;;;;5015710;28;20483;-80
2023/05/14 01:00:35;;;;;;;1.50;1.10;;;12.30;98.20;;;;;;5010958;28;20989;-80
2023/05/14 01:03:02;;;;;;;1.50;1.00;;;12.20;98.20;;;;;;5012874;28;20486;-79
2023/05/14 01:05:39;;;;;;;1.50;1.10;;;12.20;98.20;;;;;;5013126;28;20492;-80
2023/05/14 01:08:17;;;;;;;1.50;1.07;;;12.20;98.20;;;;;;4998075;28;20972;-81
2023/05/14 01:10:51;;;;;;;1.50;1.20;;;12.20;98.20;;;;;;5014107;28;20456;-81
2023/05/14 01:13:26;;;;;;;1.50;1.00;;;12.20;98.20;;;;;;5001072;28;20486;-79
2023/05/14 01:15:56;;;;;;;1.50;1.10;;;12.20;98.20;;;;;;4998377;28;20470;-78
2023/05/14 01:18:24;;;;;;;1.50;1.00;;;12.10;98.20;;;;;;5017961;28;20479;-78
2023/05/14 01:20:53;;;;;;;1.50;1.10;;;12.10;98.20;;;;;;5002532;28;20460;-79
2023/05/14 01:23:21;;;;;;;1.67;1.33;;;12.10;98.20;;;;;;5018335;28;20461;-80
2023/05/14 01:25:48;;;;;;;1.60;1.40;;;12.10;98.20;;;;;;5007734;28;20533;-78
2023/05/14 01:28:17;;;;;;;1.50;1.13;;;12.00;98.20;;;;;;5023790;28;20510;-79
2023/05/14 01:30:48;;;;;;;1.50;1.20;;;12.00;98.20;;;;;;5010023;28;20471;-79
2023/05/14 01:33:19;;;;;;;1.50;1.10;;;12.00;98.20;;;;;;4995040;28;20484;-79
2023/05/14 01:35:46;;;;;;;1.50;1.30;;;12.00;98.20;;;;;;5014236;28;20464;-77
2023/05/14 01:38:17;;;;;;;1.50;1.13;;;12.00;98.20;;;;;;5003892;28;20484;-78
2023/05/14 01:40:47;;;;;;;1.50;1.20;;;11.90;98.20;;;;;;4991198;28;20484;-78
2023/05/14 01:43:15;;;;;;;1.50;1.10;;;11.90;98.20;;;;;;4995484;28;20475;-78
2023/05/14 01:45:43;;;;;;;1.50;1.20;;;11.90;98.20;;;;;;5012503;28;20488;-78
2023/05/14 01:48:10;;;;;;;1.50;1.10;;;11.90;98.20;;;;;;5014470;28;20495;-78
2023/05/14 01:50:37;;;;;;;1.83;1.53;;;11.90;98.20;;;;;;5004811;28;20570;-78
2023/05/14 01:53:04;;;;;;;1.50;1.10;;;11.80;98.20;;;;;;5015380;28;20489;-78
2023/05/14 01:55:31;;;;;;;1.50;1.10;;;11.90;98.20;;;;;;5010829;28;20455;-77
2023/05/14 01:57:59;;;;;;;1.50;1.00;;;11.90;98.20;;;;;;5012306;28;20570;-77
2023/05/14 02:00:26;;;;;;;1.50;1.10;;;11.90;98.20;;;;;;4997639;28;20462;-77
2023/05/14 02:02:53;;;;;;;1.50;1.10;;;11.90;98.20;;;;;;5011847;28;20484;-79
2023/05/14 02:05:20;;;;;;;1.50;1.10;;;11.80;98.20;;;;;;5005251;28;20639;-78
2023/05/14 02:07:47;;;;;;;1.50;1.10;;;11.80;98.20;;;;;;5014070;28;20913;-78
2023/05/14 02:10:14;;;;;;;1.50;1.10;;;11.80;98.20;;;;;;5010040;28;20471;-77
2023/05/14 02:12:40;;;;;;;1.50;1.00;;;11.80;98.20;;;;;;5012601;28;20582;-76
2023/05/14 02:15:10;;;;;;;1.50;1.17;;;11.70;98.20;;;;;;5008949;28;20464;-78
2023/05/14 02:17:37;;;;;;;1.50;1.10;;;11.70;98.20;;;;;;5011710;28;20493;-78
2023/05/14 02:20:05;;;;;;;1.50;1.10;;;11.70;98.20;;;;;;5004938;28;21123;-77
2023/05/14 02:22:31;;;;;;;1.50;1.10;;;11.60;98.20;;;;;;5009717;28;20487;-77
2023/05/14 02:24:58;;;;;;;1.50;1.10;;;11.60;98.20;;;;;;5005916;28;20460;-78
2023/05/14 02:27:25;;;;;;;1.50;1.10;;;11.60;98.20;;;;;;5011010;28;20817;-78
2023/05/14 02:29:53;;;;;;;1.50;1.10;;;11.50;98.20;;;;;;5009537;28;20965;-78
2023/05/14 02:32:21;;;;;;;1.50;1.10;;;11.50;98.20;;;;;;5009403;28;20483;-78
2023/05/14 02:34:48;;;;;;;1.50;1.10;;;11.50;98.20;;;;;;5007017;28;20531;-78
2023/05/14 02:37:14;;;;;;;1.50;1.10;;;11.40;98.20;;;;;;5007227;28;20482;-77
2023/05/14 02:39:41;;;;;;;1.53;1.10;;;11.40;98.20;;;;;;5007623;28;21107;-76
2023/05/14 02:42:08;;;;;;;1.50;1.13;;;11.40;98.20;;;;;;5008026;28;20487;-77
2023/05/14 02:44:35;;;;;;;1.50;1.10;;;11.30;98.20;;;;;;5013315;28;20499;-78
2023/05/14 02:47:01;;;;;;;1.53;1.20;;;11.30;98.20;;;;;;5006783;28;20487;-78
2023/05/14 02:49:29;;;;;;;1.57;1.20;;;11.30;98.20;;;;;;5007957;28;20555;-77
2023/05/14 02:51:56;;;;;;;1.50;1.10;;;11.20;98.20;;;;;;5003597;28;20490;-76
2023/05/14 02:54:23;;;;;;;1.50;1.10;;;11.20;98.20;;;;;;5013850;28;21257;-78
2023/05/14 02:56:50;;;;;;;1.50;1.00;;;11.20;98.20;;;;;;5002652;28;21043;-77
2023/05/14 02:59:16;;;;;;;1.50;1.10;;;11.20;98.20;;;;;;5014883;28;20643;-78
2023/05/14 03:01:43;;;;;;;1.50;1.10;;;11.20;98.20;;;;;;4999865;28;20792;-78
2023/05/14 03:04:10;;;;;;;1.50;1.10;;;11.10;98.20;;;;;;5015168;28;20842;-77
2023/05/14 03:06:38;;;;;;;1.50;1.10;;;11.10;98.20;;;;;;5008067;28;20494;-78
2023/05/14 03:09:05;;;;;;;1.50;1.10;;;11.10;98.20;;;;;;5021690;28;20546;-78
2023/05/14 03:11:31;;;;;;;1.50;1.07;;;11.10;98.20;;;;;;5006056;28;20550;-77
2023/05/14 03:13:58;;;;;;;1.50;1.20;;;11.00;98.20;;;;;;5024978;28;20957;-77
2023/05/14 03:16:27;;;;;;;1.50;1.10;;;11.00;98.20;;;;;;5008352;28;20483;-78
2023/05/14 03:18:54;;;;;;;1.50;1.10;;;10.90;98.20;;;;;;5024102;28;20471;-78
2023/05/14 03:21:20;;;;;;;1.50;1.10;;;10.90;98.20;;;;;;5002655;28;20482;-76
2023/05/14 03:23:49;;;;;;;1.50;1.10;;;10.90;98.20;;;;;;5025076;28;20468;-78
2023/05/14 03:26:16;;;;;;;1.50;1.10;;;10.90;98.20;;;;;;5008127;28;20546;-78
2023/05/14 03:28:42;;;;;;;1.50;1.10;;;11.00;98.20;;;;;;5019261;28;20473;-76
2023/05/14 03:31:09;;;;;;;3.93;3.63;;;10.90;98.20;;;;;;5000813;28;20493;-78
2023/05/14 03:33:36;;;;;;;1.57;1.20;;;10.90;98.20;;;;;;5026984;28;20464;-77
2023/05/14 03:36:03;;;;;;;1.60;1.20;;;10.90;98.20;;;;;;5005064;28;20474;-76
2023/05/14 03:38:30;;;;;;;1.50;1.10;;;10.80;98.20;;;;;;5021808;28;20471;-77
2023/05/14 03:40:58;;;;;;;1.53;1.20;;;10.80;98.20;;;;;;4996509;28;20993;-76
2023/05/14 03:43:25;;;;;;;1.50;1.10;;;10.80;98.20;;;;;;5026872;28;20479;-77
2023/05/14 03:45:52;;;;;;;1.50;1.10;;;10.80;98.20;;;;;;4996189;28;20564;-76
2023/05/14 03:48:19;;;;;;;1.50;1.10;;;10.80;98.20;;;;;;5021660;28;20488;-76
2023/05/14 03:50:46;;;;;;;1.53;1.10;;;10.80;98.20;;;;;;5003197;28;20465;-75
2023/05/14 03:53:12;;;;;;;1.50;1.10;;;10.80;98.20;;;;;;5013432;28;20488;-76
2023/05/14 03:55:39;;;;;;;1.50;1.10;;;10.80;98.20;;;;;;4999799;28;20478;-76
2023/05/14 03:58:12;;;;;;;1.50;1.20;;;10.80;98.20;;;;;;5013146;28;21009;-75
2023/05/14 04:00:40;;;;;;;1.60;1.10;;;10.80;98.20;;;;;;5009995;28;20882;-78
2023/05/14 04:03:06;;;;;;;1.50;1.20;;;10.80;98.20;;;;;;4994562;28;20911;-78
2023/05/14 04:05:33;;;;;;;1.50;1.10;;;10.80;98.20;;;;;;5007654;28;20571;-76
2023/05/14 04:08:00;;;;;;;1.53;1.20;;;10.70;98.20;;;;;;5014079;28;20483;-78
2023/05/14 04:10:27;;;;;;;1.50;1.20;;;10.70;98.20;;;;;;5010788;28;20850;-77
2023/05/14 04:12:55;;;;;;;1.50;1.20;;;10.70;98.20;;;;;;4994881;28;20488;-77
2023/05/14 04:15:23;;;;;;;1.50;1.17;;;10.70;98.20;;;;;;5006048;28;20465;-75
2023/05/14 04:17:50;;;;;;;1.50;1.17;;;10.70;98.20;;;;;;4996533;28;20492;-76
2023/05/14 04:20:17;;;;;;;1.50;1.20;;;10.70;98.20;;;;;;5010068;28;20594;-76
2023/05/14 04:22:44;;;;;;;1.50;1.20;;;10.80;98.20;;;;;;5018565;28;20479;-76
2023/05/14 04:25:11;;;;;;;1.50;1.10;;;10.80;98.20;;;;;;5009057;28;20464;-76
2023/05/14 04:27:38;;;;;;;1.50;1.10;;;10.80;98.20;;;;;;4995223;28;20691;-75
2023/05/14 04:30:07;;;;;;;1.50;1.10;;;10.80;98.20;;;;;;5002284;28;20484;-75
2023/05/14 04:32:35;;;;;;;1.50;1.10;;;10.80;98.20;;;;;;5007973;28;20483;-75
2023/05/14 04:35:02;;;;;;;1.50;1.10;;;10.80;98.20;;;;;;5009951;28;20544;-75
2023/05/14 04:37:29;;;;;;;1.50;1.20;;;10.90;98.20;;;;;;4996429;28;20982;-76
2023/05/14 04:39:56;;;;;;;1.50;1.10;;;10.90;98.20;;;;;;5004025;28;20957;-75
2023/05/14 04:42:24;;;;;;;1.50;1.20;;;10.90;98.20;;;;;;5010077;28;20921;-76
2023/05/14 04:44:51;;;;;;;1.50;1.20;;;11.00;98.20;;;;;;5008746;28;20475;-75
2023/05/14 04:47:18;;;;;;;1.50;1.10;;;11.00;98.20;;;;;;4990607;28;21410;-76
2023/05/14 04:49:46;;;;;;;1.50;1.10;;;11.00;98.20;;;;;;5001989;28;20460;-75
2023/05/14 04:52:13;;;;;;;1.50;1.13;;;11.00;98.20;;;;;;5003031;28;20489;-75
2023/05/14 04:54:40;;;;;;;1.50;1.10;;;11.00;98.20;;;;;;5004956;28;20937;-75
2023/05/14 04:57:07;;;;;;;1.50;1.10;;;11.10;98.20;;;;;;5003106;28;20479;-74
2023/05/14 04:59:34;;;;;;;1.50;1.10;;;11.20;98.20;;;;;;5006027;28;20464;-78
2023/05/14 05:02:00;;;;;;;1.50;1.10;;;11.30;98.20;;;;;;5002477;28;20483;-76
2023/05/14 05:04:27;;;;;;;1.50;1.10;;;11.30;98.20;;;;;;5010290;28;20468;-75
2023/05/14 05:06:55;;;;;;;1.50;1.10;;;11.40;98.20;;;;;;4992478;28;20563;-76
2023/05/14 05:09:22;;;;;;;1.50;1.20;;;11.50;98.20;;;;;;4999977;28;20957;-76
2023/05/14 05:11:49;;;;;;;1.50;1.10;;;11.60;98.20;;;;;;4997727;28;20485;-75
2023/05/14 05:14:16;;;;;;;1.50;1.10;;;11.80;98.20;;;;;;5005178;28;20468;-74
2023/05/14 05:16:43;;;;;;;1.50;1.10;;;11.90;98.20;;;;;;4989220;28;20488;-75
2023/05/14 05:19:10;;;;;;;1.50;1.00;;;12.00;98.20;;;;;;4998640;28;20600;-75
2023/05/14 05:21:39;;;;;;;1.50;1.10;;;12.20;98.20;;;;;;4995710;28;20494;-76
2023/05/14 05:24:07;;;;;;;1.50;1.10;;;12.40;98.20;;;;;;5007425;28;20510;-75
2023/05/14 05:26:35;;;;;;;1.50;1.00;;;12.60;98.20;;;;;;4988760;28;20540;-76
2023/05/14 05:29:02;;;;;;;1.53;1.10;;;12.70;98.20;;;;;;4994694;28;20473;-75
2023/05/14 05:31:29;;;;;;;1.50;1.10;;;12.80;98.20;;;;;;4995658;28;20526;-76
2023/05/14 05:33:56;;;;;;;1.50;1.00;;;12.90;98.20;;;;;;5010511;28;21015;-75
2023/05/14 05:36:23;;;;;;;1.53;1.10;;;13.00;98.20;;;;;;4996940;28;20514;-76
2023/05/14 05:38:50;;;;;;;1.50;1.10;;;13.00;98.20;;;;;;5014214;28;20492;-75
2023/05/14 05:41:18;;;;;;;1.50;1.00;;;13.10;98.20;;;;;;4995238;28;20486;-76
2023/05/14 05:43:50;;;;;;;1.50;1.10;;;13.10;98.20;;;;;;5009935;28;20765;-76
2023/05/14 05:46:17;;;;;;;1.50;1.10;;;13.10;98.20;;;;;;4996105;28;20483;-76
2023/05/14 05:48:44;;;;;;;1.50;1.10;;;13.10;98.20;;;;;;5014261;28;20460;-75
2023/05/14 05:51:11;;;;;;;1.50;1.00;;;13.10;98.20;;;;;;4987274;28;20490;-75
2023/05/14 05:53:37;;;;;;;1.50;1.00;;;13.20;98.20;;;;;;5002138;28;20464;-75
2023/05/14 05:56:05;;;;;;;1.50;1.00;;;13.20;98.20;;;;;;4992227;28;20739;-76
2023/05/14 05:58:33;;;;;;;1.50;1.00;;;13.30;98.20;;;;;;5000309;28;20495;-76
2023/05/14 06:01:00;;;;;;;1.50;1.00;;;13.40;98.20;;;;;;4988513;28;20468;-75
2023/05/14 06:03:27;;;;;;;1.50;1.10;;;13.50;98.20;;;;;;5001618;28;20471;-76
2023/05/14 06:05:53;;;;;;;1.50;1.10;;;13.60;98.20;;;;;;4991877;28;20463;-76
2023/05/14 06:08:20;;;;;;;1.50;1.10;;;13.70;98.20;;;;;;4997806;28;20480;-75
2023/05/14 06:10:47;;;;;;;1.60;1.30;;;13.90;98.20;;;;;;5001280;28;20464;-79
2023/05/14 06:13:14;;;;;;;1.50;1.00;;;14.10;98.20;;;;;;5023508;28;20472;-77
2023/05/14 06:15:42;;;;;;;1.50;1.00;;;14.40;98.20;;;;;;5010284;28;20464;-79
2023/05/14 06:18:09;;;;;;;1.50;1.00;;;14.70;98.20;;;;;;5018516;28;20861;-79
2023/05/14 06:20:36;;;;;;;1.50;1.00;;;14.90;98.20;;;;;;5006016;28;20471;-80
2023/05/14 06:23:03;;;;;;;1.50;1.10;;;15.00;98.20;;;;;;5009143;28;20471;-77
2023/05/14 06:25:29;;;;;;;1.50;0.90;;;15.10;98.20;;;;;;4997987;28;20469;-77
2023/05/14 06:27:56;;;;;;;1.53;1.10;;;15.30;98.20;;;;;;4987668;28;20491;-78
2023/05/14 06:30:23;;;;;;;1.50;1.00;;;15.50;98.20;;;;;;5002807;28;20969;-80
2023/05/14 06:32:51;;;;;;;2.53;2.33;;;15.70;98.20;;;;;;4993745;28;20484;-78
2023/05/14 06:35:18;;;;;;;1.50;1.00;;;16.00;98.20;;;;;;5006462;28;20475;-79
2023/05/14 06:37:48;;;;;;;1.50;0.97;;;16.20;98.20;;;;;;5013020;28;20573;-80
2023/05/14 06:40:15;;;;;;;1.50;1.10;;;16.40;98.20;;;;;;5013831;28;20460;-81
2023/05/14 06:42:42;;;;;;;1.50;0.90;;;16.60;98.20;;;;;;5015594;28;20483;-80
2023/05/14 06:45:09;;;;;;;1.53;1.00;;;16.80;98.20;;;;;;5011114;28;20473;-79
2023/05/14 06:47:38;;;;;;;1.50;0.97;;;17.00;98.20;;;;;;5003363;28;20566;-79
2023/05/14 06:50:07;;;;;;;1.50;1.00;;;17.00;98.20;;;;;;5006453;28;20499;-80
2023/05/14 06:52:34;;;;;;;1.50;0.90;;;17.20;98.20;;;;;;5010433;28;21065;-80
2023/05/14 06:55:01;;;;;;;1.50;1.00;;;17.30;98.20;;;;;;5008772;28;20468;-80
2023/05/14 06:57:28;;;;;;;1.53;1.00;;;17.40;98.20;;;;;;4991312;28;20550;-80
2023/05/14 06:59:56;;;;;;;1.50;1.00;;;17.60;98.20;;;;;;5006301;28;20487;-80
2023/05/14 07:02:23;;;;;;;1.50;0.90;;;17.80;98.20;;;;;;4998970;28;20728;-81
2023/05/14 07:04:50;;;;;;;1.50;0.90;;;17.90;98.20;;;;;;5003529;28;20563;-81
2023/05/14 07:07:21;;;;;;;1.50;0.90;;;18.00;98.20;;;;;;4993134;28;20537;-81
2023/05/14 07:09:51;;;;;;;1.50;0.90;;;18.20;98.20;;;;;;5003165;28;20475;-81
2023/05/14 07:12:18;;;;;;;1.50;0.90;;;18.40;98.20;;;;;;4994607;28;20512;-81
2023/05/14 07:14:46;;;;;;;1.50;1.00;;;18.60;98.20;;;;;;5007840;28;20525;-83
2023/05/14 07:17:30;;;;;;;1.50;0.90;;;18.80;98.20;;;;;;5030775;23;20497;-84
2023/05/14 07:20:09;;;;;;;1.53;1.00;;;19.00;98.20;;;;;;4993425;28;20468;-83
2023/05/14 07:26:07;;;;;;;1.53;1.00;;;19.30;98.20;;;;;;4993175;28;20457;-83
2023/05/14 07:29:09;;;;;;;1.60;1.20;;;19.50;98.20;;;;;;4974818;28;20469;-84
2023/05/14 07:58:46;;;;;;;1.50;0.90;;;21.20;97.00;;;;;;5771856;22;20634;-81
2023/05/14 08:11:39;;;;;;;2.27;1.97;;;22.00;96.70;;;;;;4925934;29;20501;-83
2023/05/14 08:17:31;;;;;;;1.70;1.50;;;22.30;92.20;;;;;;4888698;28;20485;-82
2023/05/14 08:20:01;;;;;;;1.50;0.80;;;22.30;95.30;;;;;;4920709;29;20511;-83
2023/05/14 08:25:56;;;;;;;1.50;0.90;;;22.50;93.10;;;;;;4910876;29;20514;-82
2023/05/14 08:28:34;;;;;;;1.50;0.90;;;22.60;91.80;;;;;;4972113;28;20540;-83
2023/05/14 08:31:03;;;;;;;1.50;0.80;;;22.60;91.10;;;;;;4960067;28;20972;-83
2023/05/14 08:33:30;;;;;;;1.47;0.80;;;22.70;91.00;;;;;;4994865;28;20508;-82
2023/05/14 08:39:46;;;;;;;1.50;0.90;;;23.20;89.90;;;;;;4967141;28;21083;-83
2023/05/14 08:42:43;;;;;;;1.50;0.90;;;23.40;88.90;;;;;;4975492;28;20870;-83
2023/05/14 08:45:18;;;;;;;1.50;0.90;;;23.60;87.70;;;;;;4991552;28;20469;-85
2023/05/14 08:48:17;;;;;;;1.50;0.90;;;23.60;89.20;;;;;;4964987;28;20564;-83
2023/05/14 08:53:45;;;;;;;1.50;0.90;;;23.90;89.10;;;;;;4945568;28;20484;-83
2023/05/14 08:56:22;;;;;;;1.50;0.90;;;23.90;87.20;;;;;;4978888;28;20508;-83
2023/05/14 08:58:49;;;;;;;1.50;0.80;;;24.10;89.80;;;;;;4981663;28;20492;-82
2023/05/14 09:01:29;;;;;;;1.50;0.90;;;24.10;87.10;;;;;;4976860;28;20488;-82
2023/05/14 09:04:05;;;;;;;1.47;0.80;;;24.00;87.70;;;;;;4972846;28;20474;-82
2023/05/14 09:06:37;;;;;;;1.47;0.80;;;24.20;88.90;;;;;;4966702;28;20484;-83
2023/05/14 09:09:05;;;;;;;1.50;0.80;;;24.30;88.40;;;;;;4979174;28;20497;-83
2023/05/14 09:11:32;;;;;;;1.50;0.90;;;24.40;86.70;;;;;;4964703;28;20488;-82
2023/05/14 09:14:00;;;;;;;1.50;0.80;;;24.60;86.70;;;;;;4978822;28;20556;-82
2023/05/14 09:19:14;;;;;;;1.47;0.83;;;24.80;85.90;;;;;;5337008;22;20483;-84
2023/05/14 09:35:05;;;;;;;1.47;0.80;;;25.50;78.30;;;;;;5008288;28;20480;-82
2023/05/14 09:43:49;;;;;;;1.50;0.80;;;25.90;79.30;;;;;;4996870;28;20471;-83
2023/05/14 09:46:30;;;;;;;;;;;;;;;;;;;;;
2023/05/14 09:48:58;;;;;;;1.40;0.80;;;26.00;78.30;;;;;;4999104;28;20842;-84
2023/05/14 09:52:07;;;;;;;1.50;0.80;;;26.10;79.50;;;;;;4981728;28;21075;-84
2023/05/14 09:54:59;;;;;;;1.50;0.80;;;26.20;79.10;;;;;;4985028;28;20472;-82
2023/05/14 09:57:37;;;;;;;2.10;1.67;;;26.30;77.90;;;;;;4983663;28;20487;-82
2023/05/14 10:00:07;;;;;;;1.47;0.80;;;26.40;79.40;;;;;;4979225;28;20898;-81
2023/05/14 10:02:40;;;;;;;1.50;1.00;;;26.60;80.00;;;;;;4987435;28;20479;-82
2023/05/14 10:05:09;;;;;;;1.47;0.90;;;26.70;77.90;;;;;;4987583;28;20472;-83
2023/05/14 10:07:41;;;;;;;1.63;1.00;;;26.80;77.40;;;;;;4985752;28;20601;-81
2023/05/14 10:10:14;;;;;;;1.50;0.80;;;27.00;78.90;;;;;;4984020;28;20732;-83
2023/05/14 10:12:53;;;;;;;1.50;0.80;;;27.10;78.80;;;;;;4988849;28;20503;-82
2023/05/14 10:15:28;;;;;;;1.50;0.90;;;27.00;75.90;;;;;;4987190;28;20468;-84
2023/05/14 10:17:58;;;;;;;1.57;1.17;;;27.00;76.00;;;;;;4989549;28;20984;-82
2023/05/14 10:20:28;;;;;;;1.50;0.90;;;27.20;78.20;;;;;;4986690;28;20461;-82
2023/05/14 10:23:37;;;;;;;;;;;;;;;;;;;;;
2023/05/14 10:26:06;;;;;;;1.50;0.80;;;27.50;78.60;;;;;;4975363;28;20520;-79
2023/05/14 10:28:36;;;;;;;1.50;0.80;;;27.70;76.80;;;;;;5000047;28;20943;-82
2023/05/14 10:31:06;;;;;;;1.50;1.00;;;27.80;73.50;;;;;;4981221;28;20992;-81
2023/05/14 10:33:47;;;;;;;1.50;0.90;;;27.50;75.30;;;;;;4998196;28;20468;-82
2023/05/14 10:36:15;;;;;;;1.43;0.80;;;27.20;75.40;;;;;;4982313;28;20488;-82
2023/05/14 10:38:46;;;;;;;1.50;0.90;;;26.80;77.60;;;;;;5001703;28;20463;-81
2023/05/14 10:41:16;;;;;;;1.50;0.80;;;26.30;78.70;;;;;;4975998;28;20500;-80
2023/05/14 10:43:51;;;;;;;1.50;0.90;;;25.90;79.50;;;;;;4993940;28;20465;-80
2023/05/14 10:46:21;;;;;;;1.50;0.80;;;25.60;80.20;;;;;;4984880;28;20482;-79
2023/05/14 10:48:49;;;;;;;1.50;0.80;;;25.30;79.40;;;;;;5002397;28;20526;-80
2023/05/14 10:51:19;;;;;;;1.50;0.80;;;25.10;80.80;;;;;;4987547;28;20517;-82
2023/05/14 10:57:30;;;;;;;1.47;0.83;;;24.70;82.40;;;;;;4943337;28;21126;-81
2023/05/14 11:00:15;;;;;;;1.47;0.80;;;25.00;83.40;;;;;;4959624;28;20475;-81
2023/05/14 11:02:47;;;;;;;1.43;0.90;;;25.30;82.80;;;;;;4995743;28;20483;-84
2023/05/14 11:05:16;;;;;;;1.47;0.80;;;25.80;81.20;;;;;;4983580;28;20477;-83
2023/05/14 11:07:45;;;;;;;1.50;0.90;;;26.00;80.80;;;;;;4976274;28;20487;-80
2023/05/14 11:10:14;;;;;;;1.50;0.90;;;26.30;78.70;;;;;;4983014;28;20587;-80
2023/05/14 11:12:43;;;;;;;1.50;0.90;;;26.60;78.50;;;;;;4987320;28;21026;-81
2023/05/14 11:15:14;;;;;;;1.50;0.90;;;26.90;77.60;;;;;;4981634;28;20685;-80
2023/05/14 11:20:28;;;;;;;1.50;0.93;;;27.30;75.70;;;;;;4978477;28;20867;-83
2023/05/14 11:26:23;;;;;;;1.60;1.10;;;27.60;75.40;;;;;;4926455;28;20558;-82
2023/05/14 11:28:51;;;;;;;1.50;0.80;;;27.60;73.70;;;;;;4982834;28;20578;-83
2023/05/14 11:31:19;;;;;;;1.70;1.40;;;27.70;74.80;;;;;;4977175;28;20610;-82
2023/05/14 11:33:47;;;;;;;1.43;0.80;;;27.90;71.80;;;;;;4995464;28;20853;-82
2023/05/14 11:39:48;;;;;;;1.50;0.80;;;27.60;72.70;;;;;;4917562;28;20998;-84
2023/05/14 11:42:19;;;;;;;1.47;0.80;;;27.10;73.30;;;;;;4990200;28;21053;-82
2023/05/14 11:44:50;;;;;;;1.50;0.90;;;26.80;72.00;;;;;;4989821;28;20465;-83
2023/05/14 11:47:21;;;;;;;1.50;0.80;;;26.40;73.80;;;;;;4987432;28;20484;-82
2023/05/14 11:49:49;;;;;;;1.47;0.80;;;26.20;74.50;;;;;;4989096;28;20480;-83
2023/05/14 11:52:18;;;;;;;1.47;0.90;;;25.90;74.20;;;;;;4981363;28;20483;-82
2023/05/14 11:54:48;;;;;;;1.50;0.80;;;25.70;74.10;;;;;;4984306;28;20562;-82
2023/05/14 11:57:19;;;;;;;1.43;0.80;;;25.50;74.00;;;;;;4990048;28;20881;-82
2023/05/14 11:59:47;;;;;;;1.43;0.80;;;25.40;74.90;;;;;;4988191;28;20465;-81
2023/05/14 12:02:18;;;;;;;1.50;1.10;;;25.40;75.30;;;;;;4992009;28;20541;-81
2023/05/14 12:04:52;;;;;;;1.47;0.80;;;25.50;76.50;;;;;;4989569;28;20965;-83
2023/05/14 12:07:19;;;;;;;1.43;0.80;;;25.50;74.50;;;;;;4989234;28;20542;-81
2023/05/14 12:09:49;;;;;;;1.43;0.90;;;25.60;76.10;;;;;;4988118;28;20499;-82
2023/05/14 12:12:19;;;;;;;1.50;0.90;;;25.90;74.90;;;;;;4985379;28;21156;-80
2023/05/14 12:14:47;;;;;;;1.50;0.80;;;26.30;74.20;;;;;;4987119;28;20461;-79
2023/05/14 12:17:22;;;;;;;1.50;0.83;;;26.70;73.00;;;;;;4987683;28;20487;-80
2023/05/14 12:19:52;;;;;;;1.47;0.80;;;27.00;71.40;;;;;;4991074;28;20531;-81
2023/05/14 12:23:01;;;;;;;1.47;0.80;;;27.40;69.90;;;;;;4982731;28;20475;-81
2023/05/14 12:25:44;;;;;;;1.50;0.90;;;27.70;68.50;;;;;;4993262;28;20532;-80
2023/05/14 12:28:23;;;;;;;1.47;0.80;;;28.20;69.60;;;;;;4980530;28;20539;-82
2023/05/14 12:31:10;;;;;;;1.70;0.90;;;28.60;67.80;;;;;;4975115;28;20817;-82
2023/05/14 12:33:37;;;;;;;1.43;0.80;;;28.70;65.10;;;;;;4998590;28;20496;-81
2023/05/14 12:39:04;;;;;;;1.47;0.80;;;28.70;66.00;;;;;;5212829;22;20491;-84
2023/05/14 12:41:34;;;;;;;1.47;0.80;;;28.60;61.90;;;;;;4996047;28;20512;-84
2023/05/14 12:44:08;;;;;;;1.43;0.80;;;28.50;60.60;;;;;;5012307;28;20487;-82
2023/05/14 12:46:46;;;;;;;1.50;0.80;;;28.40;64.50;;;;;;5004999;28;20520;-83
2023/05/14 12:52:25;;;;;;;1.47;0.80;;;28.40;59.30;;;;;;5007790;28;21094;-83
2023/05/14 12:54:55;;;;;;;1.43;0.80;;;28.50;60.00;;;;;;5007816;28;20469;-82
2023/05/14 12:57:22;;;;;;;1.47;0.80;;;28.40;55.30;;;;;;5017960;28;21002;-83
2023/05/14 12:59:50;;;;;;;1.50;0.80;;;28.20;57.80;;;;;;5007762;28;20468;-82
2023/05/14 13:02:17;;;;;;;1.47;0.80;;;28.20;61.00;;;;;;5015819;28;20672;-81
2023/05/14 13:04:51;;;;;;;1.43;0.83;;;28.20;61.00;;;;;;5014343;28;20463;-82
2023/05/14 13:07:19;;;;;;;1.50;0.80;;;28.10;59.80;;;;;;5006087;28;20483;-81
2023/05/14 13:09:46;;;;;;;1.50;0.90;;;28.20;62.00;;;;;;5009104;28;20483;-81
2023/05/14 13:12:15;;;;;;;1.50;1.17;;;28.30;60.70;;;;;;5015936;28;20470;-81
2023/05/14 13:14:48;;;;;;;1.47;0.80;;;28.40;59.50;;;;;;5017970;28;20475;-82
2023/05/14 13:17:26;;;;;;;1.47;0.80;;;28.60;58.20;;;;;;4999776;28;20840;-83
2023/05/14 13:19:53;;;;;;;1.47;0.80;;;28.70;58.60;;;;;;4984647;28;20577;-82
2023/05/14 13:25:18;;;;;;;1.50;0.80;;;28.60;57.60;;;;;;4982140;28;20457;-82
2023/05/14 13:27:49;;;;;;;1.47;0.80;;;28.40;59.20;;;;;;4971991;28;20574;-84
2023/05/14 13:30:17;;;;;;;1.47;0.80;;;28.30;55.60;;;;;;4980536;28;20476;-81
2023/05/14 13:32:45;;;;;;;1.43;0.80;;;28.20;58.50;;;;;;4975797;28;20487;-84
2023/05/14 13:35:13;;;;;;;1.50;1.10;;;28.20;54.80;;;;;;4983333;28;20467;-81
2023/05/14 13:37:41;;;;;;;1.47;0.80;;;28.20;58.90;;;;;;5007457;28;20494;-86
2023/05/14 13:40:10;;;;;;;1.60;1.00;;;28.30;57.50;;;;;;5000967;28;20460;-83
2023/05/14 13:42:42;;;;;;;1.40;0.80;;;28.30;58.20;;;;;;5016709;28;20564;-82
2023/05/14 13:45:11;;;;;;;1.47;0.80;;;28.30;57.40;;;;;;5009351;28;20464;-84
2023/05/14 13:47:41;;;;;;;1.50;0.80;;;28.40;59.20;;;;;;5008552;28;21021;-83
2023/05/14 13:50:09;;;;;;;1.47;0.80;;;28.60;58.80;;;;;;5002077;28;20486;-84
2023/05/14 13:52:37;;;;;;;1.47;0.80;;;28.60;56.60;;;;;;5010307;28;20490;-82
2023/05/14 13:55:06;;;;;;;1.43;0.80;;;28.60;56.60;;;;;;4998913;28;20641;-83
2023/05/14 13:57:33;;;;;;;1.50;0.90;;;28.70;57.90;;;;;;5012987;28;20494;-82
2023/05/14 14:00:12;;;;;;;1.43;0.90;;;28.70;57.40;;;;;;5003170;28;20940;-83
2023/05/14 14:02:46;;;;;;;1.50;0.87;;;28.50;57.20;;;;;;5026776;28;20563;-84
2023/05/14 14:05:13;;;;;;;1.47;0.80;;;28.20;57.10;;;;;;4998196;28;20614;-82
2023/05/14 14:07:41;;;;;;;1.50;0.80;;;27.70;58.20;;;;;;5024518;28;20500;-82
2023/05/14 14:10:12;;;;;;;2.00;1.73;;;27.50;58.80;;;;;;5007501;28;20562;-84
2023/05/14 14:12:40;;;;;;;1.47;0.90;;;27.40;59.30;;;;;;5024416;28;21007;-84
2023/05/14 14:15:11;;;;;;;1.47;0.80;;;27.40;59.00;;;;;;5007863;28;20838;-81
2023/05/14 14:17:44;;;;;;;1.40;0.80;;;27.50;61.50;;;;;;5022986;28;20481;-81
2023/05/14 14:20:12;;;;;;;1.43;0.90;;;27.60;60.40;;;;;;5006325;28;20456;-83
2023/05/14 14:22:50;;;;;;;1.60;1.10;;;27.80;60.90;;;;;;5012744;28;20488;-82
2023/05/14 14:25:18;;;;;;;1.47;0.83;;;28.10;61.50;;;;;;5007276;28;20468;-82
2023/05/14 14:27:45;;;;;;;1.43;0.80;;;28.30;58.00;;;;;;5004602;28;20487;-81
2023/05/14 14:30:15;;;;;;;1.40;0.80;;;28.20;58.10;;;;;;4982826;28;20863;-83
2023/05/14 14:32:45;;;;;;;1.43;0.80;;;27.90;59.30;;;;;;5003647;28;20501;-80
2023/05/14 14:35:29;;;;;;;1.40;0.83;;;27.80;59.50;;;;;;5012792;28;20463;-81
2023/05/14 14:37:56;;;;;;;1.50;0.90;;;27.60;60.50;;;;;;5010980;28;20486;-81
2023/05/14 14:40:25;;;;;;;1.47;0.80;;;27.30;59.80;;;;;;4996273;28;20476;-80